Time;durP1;ratioP1;P1;durP2;ratioP2;P2;SDS_P1;SDS_P2;PMS_P1;PMS_P2;Temp;Humidity;BMP_temperature;BMP_pressure;BME280_temperature;BME280_humidity;BME280_pressure;Samples;Min_cycle;Max_cycle;Signal;HPM_P1;HPM_P2
2023/06/20 00:00:39;;;;;;;10.45;8.52;;;;;;;19.15;100.00;98393.75;5027294;28;20021;-73
2023/06/20 00:03:04;;;;;;;11.02;8.55;;;;;;;19.07;100.00;98383.31;5015608;28;20029;-73
2023/06/20 00:05:30;;;;;;;16.52;9.48;;;;;;;19.09;100.00;98384.69;5033499;28;20380;-73
2023/06/20 00:07:55;;;;;;;14.15;8.80;;;;;;;19.00;100.00;98389.06;5038169;28;20033;-72
2023/06/20 00:10:21;;;;;;;12.05;8.70;;;;;;;19.02;100.00;98406.03;5033405;28;20106;-72
2023/06/20 00:12:46;;;;;;;10.52;8.02;;;;;;;18.98;100.00;98402.19;5028013;28;20374;-72
2023/06/20 00:15:12;;;;;;;12.68;7.85;;;;;;;18.90;100.00;98403.53;5015601;28;20512;-72
2023/06/20 00:17:38;;;;;;;9.25;7.22;;;;;;;18.98;100.00;98415.91;5036012;28;20043;-74
2023/06/20 00:20:05;;;;;;;10.60;8.07;;;;;;;18.99;100.00;98423.03;5021261;28;20025;-74
2023/06/20 00:22:34;;;;;;;13.68;8.65;;;;;;;18.87;100.00;98416.97;5035000;28;20114;-74
2023/06/20 00:25:01;;;;;;;19.33;9.15;;;;;;;18.83;100.00;98430.34;5045928;28;20056;-74
2023/06/20 00:27:26;;;;;;;13.98;7.65;;;;;;;18.95;100.00;98455.66;5031795;28;20476;-74
2023/06/20 00:29:52;;;;;;;11.13;7.65;;;;;;;18.85;100.00;98430.09;5024839;28;20066;-74
2023/06/20 00:32:17;;;;;;;11.48;7.97;;;;;;;18.95;100.00;98430.16;5030217;28;20108;-74
2023/06/20 00:34:42;;;;;;;17.52;8.32;;;;;;;19.07;100.00;98443.63;5025009;28;20036;-74
2023/06/20 00:37:07;;;;;;;14.05;7.60;;;;;;;19.16;100.00;98453.00;5028865;28;20108;-74
2023/06/20 00:39:33;;;;;;;8.88;7.30;;;;;;;19.17;100.00;98452.72;5020021;28;20026;-73
2023/06/20 00:41:58;;;;;;;11.93;7.45;;;;;;;19.17;100.00;98447.22;5033360;28;20483;-74
2023/06/20 00:44:23;;;;;;;11.80;7.32;;;;;;;19.11;100.00;98450.25;5038492;28;20074;-74
2023/06/20 00:46:49;;;;;;;9.50;6.68;;;;;;;19.20;100.00;98463.19;5044107;28;20057;-73
2023/06/20 00:49:14;;;;;;;11.63;6.70;;;;;;;19.31;100.00;98480.50;5045290;28;20076;-74
2023/06/20 00:51:39;;;;;;;11.95;7.38;;;;;;;19.25;100.00;98487.03;5036556;28;20026;-74
2023/06/20 00:54:05;;;;;;;13.32;7.45;;;;;;;19.22;100.00;98510.34;5040487;28;20056;-74
2023/06/20 00:56:32;;;;;;;9.75;6.53;;;;;;;19.25;100.00;98541.88;5037433;28;20506;-74
2023/06/20 00:58:57;;;;;;;8.85;7.05;;;;;;;19.55;100.00;98609.81;5029314;28;20022;-74
2023/06/20 01:01:22;;;;;;;10.40;6.80;;;;;;;19.62;100.00;98604.06;5035619;28;20510;-73
2023/06/20 01:03:50;;;;;;;9.23;6.90;;;;;;;19.68;100.00;98634.06;5030228;28;20049;-74
2023/06/20 01:06:43;;;;;;;11.98;7.78;;;;;;;19.54;100.00;98608.16;5033628;28;20021;-72
2023/06/20 01:09:31;;;;;;;13.70;8.00;;;;;;;19.43;100.00;98637.47;5023041;28;20518;-74
2023/06/20 01:12:18;;;;;;;14.38;9.93;;;;;;;19.31;100.00;98653.31;5014314;28;20037;-72
2023/06/20 01:15:13;;;;;;;14.15;10.23;;;;;;;19.23;100.00;98667.50;5029712;28;20056;-71
2023/06/20 01:17:44;;;;;;;17.50;11.05;;;;;;;19.17;100.00;98668.56;5026637;28;20083;-72
2023/06/20 01:20:17;;;;;;;16.08;11.02;;;;;;;19.11;100.00;98683.31;5045992;28;20033;-72
2023/06/20 01:23:09;;;;;;;17.30;10.20;;;;;;;19.03;100.00;98677.22;5015362;28;20112;-73
2023/06/20 01:25:54;;;;;;;20.67;11.80;;;;;;;18.94;100.00;98678.81;5011417;28;20033;-72
2023/06/20 01:28:34;;;;;;;16.67;10.23;;;;;;;18.99;100.00;98681.59;5026434;28;20057;-73
2023/06/20 01:31:21;;;;;;;20.48;12.85;;;;;;;18.95;100.00;98680.44;5020642;28;20033;-71
2023/06/20 01:33:56;;;;;;;14.93;11.40;;;;;;;18.84;100.00;98678.72;5032454;28;20025;-72
2023/06/20 01:36:22;;;;;;;16.05;11.18;;;;;;;18.88;100.00;98690.78;5021648;28;20044;-71
2023/06/20 01:38:51;;;;;;;15.40;10.57;;;;;;;18.91;100.00;98683.97;5022170;28;20029;-71
2023/06/20 01:41:20;;;;;;;;;;;;;;;18.83;100.00;98682.53;5033409;28;20550;-72
2023/06/20 01:43:47;;;;;;;12.32;9.93;;;;;;;18.66;100.00;98657.97;5031350;28;20267;-72
2023/06/20 01:46:14;;;;;;;16.85;10.55;;;;;;;18.79;100.00;98681.41;5035746;28;20032;-71
2023/06/20 01:48:41;;;;;;;16.77;10.52;;;;;;;18.68;100.00;98658.53;5030850;28;20038;-71
2023/06/20 01:51:06;;;;;;;15.70;11.25;;;;;;;18.72;100.00;98656.91;5014867;28;20033;-71
2023/06/20 01:53:35;;;;;;;16.08;11.48;;;;;;;18.73;100.00;98663.22;5013144;28;20022;-72
2023/06/20 01:56:02;;;;;;;19.33;10.75;;;;;;;18.68;100.00;98655.78;5022444;28;20029;-71
2023/06/20 01:58:29;;;;;;;18.83;10.95;;;;;;;18.67;100.00;98658.78;5015547;28;20484;-71
2023/06/20 02:00:57;;;;;;;18.88;10.27;;;;;;;18.74;100.00;98656.66;5011612;28;20076;-71
2023/06/20 02:03:28;;;;;;;15.73;11.77;;;;;;;18.78;100.00;98657.81;5027175;28;20388;-71
2023/06/20 02:05:58;;;;;;;17.38;12.15;;;;;;;18.77;100.00;98670.69;5028356;28;20068;-71
2023/06/20 02:08:24;;;;;;;19.08;11.57;;;;;;;18.75;100.00;98645.44;5032526;28;20075;-71
2023/06/20 02:10:51;;;;;;;17.77;10.88;;;;;;;18.72;100.00;98639.66;5030895;28;20375;-71
2023/06/20 02:13:17;;;;;;;21.85;13.20;;;;;;;18.73;100.00;98639.41;5031800;28;20097;-71
2023/06/20 02:15:45;;;;;;;17.17;12.40;;;;;;;18.65;100.00;98653.53;5019919;28;20427;-71
2023/06/20 02:18:10;;;;;;;18.55;11.85;;;;;;;18.68;100.00;98657.69;5028878;28;20017;-71
2023/06/20 02:20:36;;;;;;;16.40;11.15;;;;;;;18.66;100.00;98654.41;5024466;28;20029;-72
2023/06/20 02:23:07;;;;;;;18.15;11.23;;;;;;;18.59;100.00;98630.75;5032438;28;20067;-72
2023/06/20 02:25:35;;;;;;;12.38;10.02;;;;;;;18.61;100.00;98625.03;5031568;28;20024;-71
2023/06/20 02:28:02;;;;;;;12.93;9.98;;;;;;;18.64;100.00;98620.94;5026585;28;20088;-72
2023/06/20 02:30:31;;;;;;;12.88;9.07;;;;;;;18.48;100.00;98604.34;5028085;28;20107;-72
2023/06/20 02:32:59;;;;;;;11.68;8.68;;;;;;;18.61;100.00;98625.84;5011506;28;20022;-72
2023/06/20 02:35:25;;;;;;;12.48;8.45;;;;;;;18.54;100.00;98614.25;5019083;28;20091;-72
2023/06/20 02:37:56;;;;;;;14.70;7.07;;;;;;;18.64;100.00;98612.72;5020729;28;20474;-71
2023/06/20 02:40:23;;;;;;;13.48;7.78;;;;;;;18.66;100.00;98605.06;5022208;28;20063;-72
2023/06/20 02:42:48;;;;;;;9.85;6.97;;;;;;;18.61;100.00;98592.97;5023540;28;20025;-71
2023/06/20 02:45:13;;;;;;;8.02;6.25;;;;;;;18.57;100.00;98585.53;5029820;28;20037;-72
2023/06/20 02:47:49;;;;;;;8.50;6.85;;;;;;;18.57;100.00;98586.34;5013572;28;20064;-72
2023/06/20 02:50:23;;;;;;;9.43;7.18;;;;;;;18.44;100.00;98583.22;5015225;28;20503;-72
2023/06/20 02:53:05;;;;;;;8.98;6.80;;;;;;;18.42;100.00;98596.34;5030956;28;20088;-73
2023/06/20 02:55:38;;;;;;;13.07;7.25;;;;;;;18.38;100.00;98604.25;5035754;28;20112;-72
2023/06/20 02:58:26;;;;;;;9.45;6.93;;;;;;;18.23;100.00;98590.41;5024893;28;20100;-71
2023/06/20 03:00:53;;;;;;;9.50;7.32;;;;;;;18.26;100.00;98592.63;5030606;28;20067;-71
2023/06/20 03:03:24;;;;;;;11.75;7.75;;;;;;;18.14;100.00;98577.19;5031598;28;20036;-71
2023/06/20 03:05:56;;;;;;;11.18;7.35;;;;;;;18.21;100.00;98587.94;5031815;28;20440;-71
2023/06/20 03:08:24;;;;;;;12.13;8.05;;;;;;;18.13;100.00;98577.44;5016272;28;20103;-71
2023/06/20 03:10:50;;;;;;;12.77;7.88;;;;;;;18.12;100.00;98601.25;5020121;28;20029;-71
2023/06/20 03:13:15;;;;;;;11.23;8.00;;;;;;;17.98;100.00;98585.50;5026328;28;20026;-71
2023/06/20 03:15:41;;;;;;;15.73;9.50;;;;;;;18.02;100.00;98595.66;5028075;28;20026;-71
2023/06/20 03:18:07;;;;;;;13.85;9.00;;;;;;;18.05;100.00;98614.34;5025882;28;20067;-69
2023/06/20 03:20:33;;;;;;;11.10;8.38;;;;;;;17.99;100.00;98617.25;5028645;28;20105;-69
2023/06/20 03:22:58;;;;;;;14.75;10.20;;;;;;;17.81;100.00;98594.59;5031538;28;20083;-69
2023/06/20 03:25:24;;;;;;;15.40;9.40;;;;;;;17.85;100.00;98605.88;5024394;28;20032;-69
2023/06/20 03:27:49;;;;;;;17.10;10.18;;;;;;;17.87;100.00;98612.75;5012234;28;20018;-70
2023/06/20 03:30:15;;;;;;;12.77;9.93;;;;;;;17.81;100.00;98610.19;5011931;28;20072;-71
2023/06/20 03:32:41;;;;;;;16.85;11.30;;;;;;;17.74;100.00;98593.97;5031340;28;20479;-70
2023/06/20 03:35:07;;;;;;;14.82;10.25;;;;;;;17.85;100.00;98608.63;5026600;28;20116;-71
2023/06/20 03:37:32;;;;;;;17.08;11.27;;;;;;;17.80;100.00;98605.81;5029482;28;20492;-75
2023/06/20 03:39:58;;;;;;;15.63;10.60;;;;;;;17.73;100.00;98587.63;5028005;28;20333;-76
2023/06/20 03:42:23;;;;;;;17.08;10.23;;;;;;;17.72;100.00;98593.38;5020545;28;20045;-67
2023/06/20 03:44:49;;;;;;;15.77;10.93;;;;;;;17.71;100.00;98589.81;5024666;28;20034;-71
2023/06/20 03:47:14;;;;;;;17.33;10.50;;;;;;;17.65;100.00;98593.56;5019995;28;20025;-72
2023/06/20 03:49:39;;;;;;;18.77;11.20;;;;;;;17.67;100.00;98594.13;5028319;28;20025;-71
2023/06/20 03:52:05;;;;;;;13.77;11.00;;;;;;;17.67;100.00;98602.34;5030237;28;20083;-71
2023/06/20 03:54:30;;;;;;;17.42;10.30;;;;;;;17.69;100.00;98591.97;5026405;28;20451;-67
2023/06/20 03:56:56;;;;;;;16.33;9.73;;;;;;;17.70;100.00;98601.00;5025040;28;20502;-72
2023/06/20 03:59:21;;;;;;;16.45;10.75;;;;;;;17.61;100.00;98589.69;5030694;28;20116;-75
2023/06/20 04:01:46;;;;;;;17.05;10.20;;;;;;;17.69;100.00;98604.84;5028512;28;20041;-75
2023/06/20 04:04:13;;;;;;;16.17;9.65;;;;;;;17.75;100.00;98609.28;5040195;28;20056;-73
2023/06/20 04:06:39;;;;;;;17.58;9.63;;;;;;;17.67;100.00;98604.25;5017813;28;20425;-73
2023/06/20 04:09:04;;;;;;;12.57;8.65;;;;;;;17.64;100.00;98597.38;5029007;28;20112;-73
2023/06/20 04:11:30;;;;;;;12.13;9.13;;;;;;;17.70;100.00;98603.75;5021074;28;20555;-73
2023/06/20 04:13:55;;;;;;;13.13;9.15;;;;;;;17.79;100.00;98609.59;5016040;28;20032;-69
2023/06/20 04:16:21;;;;;;;14.95;9.73;;;;;;;17.89;100.00;98605.13;5021046;28;20514;-70
2023/06/20 04:18:46;;;;;;;11.52;8.85;;;;;;;17.88;100.00;98597.97;5022240;28;20034;-74
2023/06/20 04:21:11;;;;;;;12.43;8.48;;;;;;;17.89;100.00;98601.53;5020868;28;20452;-67
2023/06/20 04:23:37;;;;;;;14.35;9.27;;;;;;;17.90;100.00;98592.25;5026561;28;20076;-67
2023/06/20 04:26:03;;;;;;;10.57;8.18;;;;;;;17.98;100.00;98600.00;5029072;28;20018;-75
2023/06/20 04:28:28;;;;;;;11.73;8.35;;;;;;;18.06;100.00;98596.00;5032544;28;20446;-73
2023/06/20 04:30:55;;;;;;;14.75;7.68;;;;;;;18.20;100.00;98601.88;5020838;28;20021;-71
2023/06/20 04:33:20;;;;;;;10.75;7.07;;;;;;;18.18;100.00;98599.38;5027163;28;20028;-73
2023/06/20 04:35:46;;;;;;;11.70;6.88;;;;;;;18.31;100.00;98604.47;5030120;28;20026;-71
2023/06/20 04:38:12;;;;;;;9.80;6.55;;;;;;;18.36;100.00;98595.47;5028127;28;20118;-69
2023/06/20 04:40:38;;;;;;;7.63;5.90;;;;;;;18.47;100.00;98594.50;5030335;28;20025;-70
2023/06/20 04:43:03;;;;;;;8.52;6.15;;;;;;;18.49;100.00;98584.09;5031167;28;20032;-67
2023/06/20 04:45:30;;;;;;;8.70;6.55;;;;;;;18.54;100.00;98575.91;5027870;28;20033;-73
2023/06/20 04:47:56;;;;;;;9.27;5.78;;;;;;;18.70;100.00;98598.78;5021659;28;20052;-73
2023/06/20 04:50:22;;;;;;;8.73;5.85;;;;;;;18.78;100.00;98575.59;5016201;28;20593;-67
2023/06/20 04:52:47;;;;;;;9.45;5.57;;;;;;;18.87;100.00;98578.69;5027224;28;20029;-69
2023/06/20 04:55:13;;;;;;;10.07;5.85;;;;;;;18.98;100.00;98564.78;5032684;28;20444;-73
2023/06/20 04:57:38;;;;;;;6.18;5.00;;;;;;;19.14;100.00;98551.16;5023399;28;20037;-72
2023/06/20 05:00:07;;;;;;;7.60;5.30;;;;;;;19.27;100.00;98542.47;5023206;28;20041;-72
2023/06/20 05:02:33;;;;;;;7.55;4.45;;;;;;;19.33;100.00;98519.44;5017577;28;20030;-72
2023/06/20 05:04:58;;;;;;;5.43;4.85;;;;;;;19.41;100.00;98515.34;5020136;28;20048;-75
2023/06/20 05:07:24;;;;;;;8.15;4.28;;;;;;;19.58;100.00;98517.91;5021556;28;20614;-77
2023/06/20 05:09:50;;;;;;;6.68;4.68;;;;;;;19.92;100.00;98527.38;5020851;28;20068;-78
2023/06/20 05:12:15;;;;;;;6.18;4.70;;;;;;;20.17;100.00;98523.00;5033086;28;20017;-66
2023/06/20 05:14:42;;;;;;;6.78;4.80;;;;;;;20.33;100.00;98521.94;5019667;28;20037;-67
2023/06/20 05:17:07;;;;;;;4.95;3.83;;;;;;;20.50;100.00;98512.59;5032453;28;20021;-74
2023/06/20 05:19:33;;;;;;;5.85;4.18;;;;;;;20.86;100.00;98526.34;5029241;28;20472;-74
2023/06/20 05:21:58;;;;;;;12.32;4.50;;;;;;;20.83;100.00;98518.63;5032545;28;20514;-74
2023/06/20 05:24:24;;;;;;;14.32;4.90;;;;;;;20.93;100.00;98513.97;5032697;28;20029;-74
2023/06/20 05:26:49;;;;;;;7.10;5.50;;;;;;;20.97;100.00;98508.72;5025421;28;20104;-75
2023/06/20 05:29:14;;;;;;;8.13;4.93;;;;;;;20.91;100.00;98515.34;5028760;28;20472;-75
2023/06/20 05:31:43;;;;;;;9.07;4.10;;;;;;;21.13;100.00;98521.31;5010750;28;20033;-74
2023/06/20 05:34:08;;;;;;;8.50;4.35;;;;;;;21.11;100.00;98514.44;5026711;28;20494;-74
2023/06/20 05:36:33;;;;;;;6.00;4.10;;;;;;;21.21;100.00;98511.66;5030671;28;20025;-75
2023/06/20 05:38:59;;;;;;;4.72;3.60;;;;;;;21.38;100.00;98533.41;5032172;28;20026;-67
2023/06/20 05:41:25;;;;;;;5.30;3.42;;;;;;;21.31;100.00;98527.34;5028548;28;20064;-72
2023/06/20 05:43:51;;;;;;;7.43;3.47;;;;;;;21.48;100.00;98524.25;5032895;28;20033;-72
2023/06/20 05:46:16;;;;;;;8.15;3.08;;;;;;;21.47;100.00;98506.94;5032158;28;20104;-73
2023/06/20 05:48:43;;;;;;;5.43;3.03;;;;;;;21.46;100.00;98505.28;5030901;28;20056;-70
2023/06/20 05:51:14;;;;;;;8.18;3.25;;;;;;;21.62;100.00;98517.88;5034492;28;20044;-68
2023/06/20 05:53:43;;;;;;;6.18;3.20;;;;;;;21.56;100.00;98516.25;5024097;28;20025;-71
2023/06/20 05:56:09;;;;;;;3.92;2.70;;;;;;;21.79;100.00;98509.22;5025426;28;20049;-70
2023/06/20 05:58:36;;;;;;;9.73;3.08;;;;;;;21.79;100.00;98505.66;5024844;28;20057;-73
2023/06/20 06:01:01;;;;;;;5.50;3.40;;;;;;;21.82;100.00;98492.16;5016731;28;20555;-72
2023/06/20 06:03:27;;;;;;;4.65;3.28;;;;;;;21.92;100.00;98502.28;5013484;28;20109;-69
2023/06/20 06:05:52;;;;;;;7.53;3.47;;;;;;;22.04;100.00;98502.75;5016802;28;20025;-66
2023/06/20 06:08:18;;;;;;;9.10;3.55;;;;;;;22.21;100.00;98504.31;5016714;28;20040;-70
2023/06/20 06:10:43;;;;;;;4.50;3.05;;;;;;;22.34;100.00;98486.31;5028596;28;20108;-72
2023/06/20 06:13:10;;;;;;;6.45;3.30;;;;;;;22.46;100.00;98506.88;5024672;28;20072;-69
2023/06/20 06:15:35;;;;;;;5.05;3.38;;;;;;;22.49;100.00;98503.53;5019966;28;20047;-67
2023/06/20 06:18:03;;;;;;;6.45;3.30;;;;;;;22.61;100.00;98507.84;5022169;28;20108;-67
2023/06/20 06:20:29;;;;;;;6.35;3.60;;;;;;;22.88;100.00;98510.91;5021326;28;20033;-68
2023/06/20 06:22:54;;;;;;;5.93;3.20;;;;;;;23.20;100.00;98515.03;5024529;28;20064;-67
2023/06/20 06:25:20;;;;;;;7.63;2.88;;;;;;;23.44;100.00;98508.66;5013998;28;20048;-67
2023/06/20 06:27:45;;;;;;;7.45;3.55;;;;;;;23.48;100.00;98520.78;5016326;28;20025;-75
2023/06/20 06:30:10;;;;;;;7.07;3.20;;;;;;;23.70;100.00;98507.22;5026246;28;20022;-70
2023/06/20 06:32:36;;;;;;;4.28;3.10;;;;;;;24.20;100.00;98504.06;5021597;28;20101;-70
2023/06/20 06:35:03;;;;;;;6.47;3.17;;;;;;;24.45;100.00;98508.41;5023938;28;20104;-71
2023/06/20 06:37:31;;;;;;;5.72;3.15;;;;;;;24.51;100.00;98507.19;5025835;28;20043;-72
2023/06/20 06:39:59;;;;;;;4.97;2.90;;;;;;;24.65;100.00;98516.34;5017198;28;20097;-71
2023/06/20 06:42:25;;;;;;;4.35;3.10;;;;;;;24.49;100.00;98504.69;5013933;28;20029;-65
2023/06/20 06:44:51;;;;;;;6.45;3.28;;;;;;;24.74;100.00;98510.94;5019174;28;20029;-71
2023/06/20 06:47:16;;;;;;;6.95;3.65;;;;;;;25.28;100.00;98514.97;5026209;28;20067;-71
2023/06/20 06:49:41;;;;;;;8.27;3.75;;;;;;;24.95;100.00;98514.16;5028031;28;20487;-71
2023/06/20 06:52:08;;;;;;;4.18;2.80;;;;;;;25.70;100.00;98501.91;5018044;28;20159;-69
2023/06/20 06:54:33;;;;;;;11.40;3.47;;;;;;;26.36;100.00;98510.66;5024040;28;20069;-71
2023/06/20 06:56:58;;;;;;;5.85;3.13;;;;;;;28.11;100.00;98510.34;5025018;28;20114;-70
2023/06/20 06:59:24;;;;;;;6.07;2.88;;;;;;;29.91;100.00;98497.38;5025601;28;20175;-75
2023/06/20 07:01:49;;;;;;;4.97;2.72;;;;;;;32.07;99.52;98503.78;5027533;28;20017;-75
2023/06/20 07:04:14;;;;;;;5.68;2.97;;;;;;;32.83;91.65;98481.56;5047350;28;20025;-73
2023/06/20 07:06:40;;;;;;;4.65;2.72;;;;;;;34.04;73.02;98489.34;5030431;28;20017;-73
2023/06/20 07:09:05;;;;;;;3.97;2.60;;;;;;;34.79;68.26;98503.38;5032566;28;20065;-72
2023/06/20 07:11:31;;;;;;;3.88;2.58;;;;;;;34.81;65.55;98513.06;5029471;28;20033;-73
2023/06/20 07:13:56;;;;;;;8.27;3.03;;;;;;;35.65;60.20;98500.09;5030434;28;20023;-74
2023/06/20 07:16:21;;;;;;;6.25;2.97;;;;;;;35.02;60.42;98492.16;5031544;28;20075;-76
2023/06/20 07:18:47;;;;;;;7.55;3.05;;;;;;;35.38;59.49;98484.38;5031928;28;20022;-81
2023/06/20 07:21:12;;;;;;;5.72;3.08;;;;;;;35.96;58.72;98478.44;5033929;28;20063;-71
2023/06/20 07:23:37;;;;;;;5.43;2.88;;;;;;;36.41;57.16;98480.25;5025673;28;20029;-71
2023/06/20 07:26:03;;;;;;;8.73;2.60;;;;;;;37.28;53.59;98468.75;5031266;28;20018;-72
2023/06/20 07:28:29;;;;;;;7.30;2.88;;;;;;;36.90;52.51;98480.44;5023542;28;20033;-71
2023/06/20 07:30:54;;;;;;;11.82;3.33;;;;;;;35.74;54.88;98478.16;5015112;28;20024;-66
2023/06/20 07:33:20;;;;;;;9.45;3.38;;;;;;;36.68;54.05;98468.94;5029780;28;20068;-73
2023/06/20 07:35:46;;;;;;;6.65;2.58;;;;;;;37.29;51.71;98461.88;5027373;28;20033;-72
2023/06/20 07:38:11;;;;;;;6.40;2.70;;;;;;;38.33;48.88;98478.69;5030372;28;20021;-75
2023/06/20 07:40:37;;;;;;;7.10;2.78;;;;;;;38.36;48.70;98486.41;5021218;28;20040;-74
2023/06/20 07:43:02;;;;;;;7.90;3.10;;;;;;;37.09;49.99;98482.25;5031580;28;20021;-75
2023/06/20 07:45:28;;;;;;;4.95;2.67;;;;;;;38.84;47.55;98466.38;5031663;28;20087;-75
2023/06/20 07:47:53;;;;;;;4.82;2.63;;;;;;;37.72;46.60;98481.19;5024666;28;20097;-76
2023/06/20 07:50:19;;;;;;;5.55;3.00;;;;;;;38.32;45.51;98472.25;5042697;28;20034;-77
2023/06/20 07:52:44;;;;;;;5.20;2.88;;;;;;;37.52;46.95;98479.81;5032643;28;20021;-77
2023/06/20 07:55:09;;;;;;;4.70;2.83;;;;;;;38.14;45.80;98474.19;5020635;28;20034;-76
2023/06/20 07:57:35;;;;;;;5.60;3.13;;;;;;;39.02;44.68;98480.56;5026457;28;21571;-69
2023/06/20 08:00:00;;;;;;;5.75;2.78;;;;;;;38.23;44.84;98485.94;5023884;28;20053;-69
2023/06/20 08:02:28;;;;;;;5.93;3.10;;;;;;;37.03;46.54;98491.06;5035200;28;20037;-70
2023/06/20 08:04:53;;;;;;;7.30;3.13;;;;;;;37.43;46.08;98480.13;5034470;28;20079;-70
2023/06/20 08:07:19;;;;;;;5.47;2.80;;;;;;;38.14;45.97;98477.00;5031544;28;20029;-75
2023/06/20 08:09:44;;;;;;;3.63;2.60;;;;;;;39.85;42.90;98470.91;5032844;28;20376;-71
2023/06/20 08:12:11;;;;;;;6.05;2.97;;;;;;;39.60;41.94;98470.91;5034400;28;20049;-71
2023/06/20 08:14:37;;;;;;;4.60;2.88;;;;;;;39.31;41.51;98469.28;5023326;28;20079;-71
2023/06/20 08:17:02;;;;;;;6.95;3.30;;;;;;;39.72;41.99;98469.69;5022489;28;20026;-71
2023/06/20 08:19:28;;;;;;;3.88;2.80;;;;;;;39.49;42.58;98475.78;5030635;28;20083;-71
2023/06/20 08:21:53;;;;;;;4.73;3.00;;;;;;;40.06;41.44;98452.19;5030236;28;20025;-71
2023/06/20 08:24:18;;;;;;;5.63;2.80;;;;;;;39.12;42.63;98473.28;5024748;28;20944;-72
2023/06/20 08:26:44;;;;;;;5.40;3.05;;;;;;;39.54;41.90;98474.53;5032353;28;20422;-71
2023/06/20 08:29:11;;;;;;;6.83;3.10;;;;;;;39.03;41.58;98461.56;5017952;28;20064;-72
2023/06/20 08:31:36;;;;;;;5.65;3.20;;;;;;;39.84;40.96;98454.28;5022173;28;20278;-72
2023/06/20 08:34:03;;;;;;;7.60;3.20;;;;;;;39.29;40.95;98460.38;5030528;28;20406;-72
2023/06/20 08:36:28;;;;;;;6.53;3.40;;;;;;;38.60;42.28;98456.63;5024883;28;20056;-71
2023/06/20 08:38:54;;;;;;;5.15;3.13;;;;;;;37.42;44.30;98458.78;5032173;28;20482;-72
2023/06/20 08:41:24;;;;;;;6.43;3.30;;;;;;;36.35;46.68;98447.19;5028029;28;20037;-72
2023/06/20 08:43:49;;;;;;;6.55;3.35;;;;;;;36.45;46.09;98451.34;5032087;28;20310;-72
2023/06/20 08:46:15;;;;;;;6.65;3.05;;;;;;;35.69;48.73;98443.88;5033961;28;20459;-72
2023/06/20 08:48:41;;;;;;;5.00;2.80;;;;;;;35.80;48.83;98447.66;5023675;28;20026;-72
2023/06/20 08:51:06;;;;;;;6.57;3.05;;;;;;;35.36;50.46;98442.53;5029195;28;20030;-72
2023/06/20 08:53:33;;;;;;;7.55;3.17;;;;;;;35.55;50.96;98442.47;5020691;28;20513;-72
2023/06/20 08:56:00;;;;;;;6.53;3.40;;;;;;;36.03;49.08;98469.28;5025477;28;20022;-72
2023/06/20 08:58:26;;;;;;;8.75;3.85;;;;;;;37.99;45.19;98445.06;5032943;28;20037;-72
2023/06/20 09:00:51;;;;;;;7.38;3.35;;;;;;;39.64;41.79;98428.41;5026645;28;20013;-72
2023/06/20 09:03:16;;;;;;;7.93;3.53;;;;;;;39.90;41.43;98443.34;5027237;28;20431;-72
2023/06/20 09:05:42;;;;;;;7.85;3.30;;;;;;;38.78;42.34;98453.84;5025528;28;20068;-71
2023/06/20 09:08:12;;;;;;;4.68;3.10;;;;;;;40.39;40.42;98448.03;5034010;28;20072;-72
2023/06/20 09:10:39;;;;;;;8.20;3.63;;;;;;;39.98;39.82;98442.91;5035033;28;20083;-72
2023/06/20 09:13:06;;;;;;;8.18;3.63;;;;;;;40.83;39.86;98437.28;5026396;28;20078;-72
2023/06/20 09:15:33;;;;;;;4.70;3.42;;;;;;;40.53;38.85;98430.13;5024449;28;20094;-72
2023/06/20 09:18:00;;;;;;;7.20;3.83;;;;;;;40.23;39.96;98433.53;5027980;28;20025;-72
2023/06/20 09:20:27;;;;;;;3.58;2.55;;;;;;;41.00;39.19;98429.84;5031895;28;20109;-72
2023/06/20 09:22:52;;;;;;;6.53;2.92;;;;;;;41.15;38.23;98420.84;5015331;28;20535;-72
2023/06/20 09:25:23;;;;;;;5.22;3.50;;;;;;;39.63;39.60;98423.97;5025842;28;20091;-72
2023/06/20 09:27:49;;;;;;;4.93;3.28;;;;;;;40.26;38.78;98410.84;5022329;28;20054;-72
2023/06/20 09:30:14;;;;;;;5.47;3.05;;;;;;;40.96;38.46;98424.22;5031807;28;20079;-72
2023/06/20 09:32:41;;;;;;;6.35;3.00;;;;;;;42.65;36.12;98420.41;5030744;28;20029;-72
2023/06/20 09:35:08;;;;;;;7.30;3.03;;;;;;;41.45;36.71;98419.38;5018662;28;20045;-72
2023/06/20 09:37:47;;;;;;;5.47;3.30;;;;;;;41.66;37.01;98415.53;5029398;28;20455;-72
2023/06/20 09:40:17;;;;;;;3.92;2.63;;;;;;;42.82;35.04;98413.66;5024732;28;20435;-72
2023/06/20 09:42:44;;;;;;;6.78;3.13;;;;;;;43.57;34.39;98414.47;5024900;28;20108;-72
2023/06/20 09:45:11;;;;;;;6.55;3.25;;;;;;;43.56;34.12;98398.59;5033050;28;20390;-72
2023/06/20 09:47:38;;;;;;;5.88;3.15;;;;;;;41.64;35.95;98389.56;5033203;28;20049;-72
2023/06/20 09:50:08;;;;;;;8.02;3.00;;;;;;;43.42;34.23;98384.63;5023291;28;20422;-72
2023/06/20 09:52:40;;;;;;;4.43;2.97;;;;;;;42.99;33.23;98405.28;5015474;28;20029;-72
2023/06/20 09:55:09;;;;;;;6.15;3.30;;;;;;;43.82;32.82;98396.09;5031687;28;20056;-72
2023/06/20 09:57:43;;;;;;;4.72;2.53;;;;;;;44.10;32.06;98397.59;5022987;28;20025;-72
2023/06/20 10:00:19;;;;;;;5.68;3.40;;;;;;;43.18;32.56;98390.34;5031781;28;20055;-72
2023/06/20 10:02:46;;;;;;;5.22;3.10;;;;;;;43.73;33.08;98379.56;5013975;28;20064;-72
2023/06/20 10:05:13;;;;;;;6.90;2.97;;;;;;;43.67;31.63;98384.97;5022968;28;20097;-72
2023/06/20 10:07:41;;;;;;;5.80;3.13;;;;;;;43.40;32.01;98376.50;5029197;28;20080;-72
2023/06/20 10:10:07;;;;;;;4.88;3.00;;;;;;;42.88;32.59;98383.47;5025868;28;20104;-73
2023/06/20 10:12:33;;;;;;;7.32;3.22;;;;;;;42.38;31.79;98380.56;5039661;28;20523;-72
2023/06/20 10:15:00;;;;;;;4.38;3.03;;;;;;;42.35;33.73;98385.09;5029439;28;20026;-72
2023/06/20 10:17:31;;;;;;;5.07;3.27;;;;;;;42.99;33.28;98382.50;5029275;28;20032;-73
2023/06/20 10:19:57;;;;;;;4.90;3.20;;;;;;;43.96;30.39;98384.38;5030501;28;20346;-73
2023/06/20 10:22:32;;;;;;;7.72;3.40;;;;;;;44.29;30.76;98379.63;5034218;28;20031;-72
2023/06/20 10:25:02;;;;;;;6.80;3.20;;;;;;;44.44;31.00;98374.44;5021817;28;20033;-72
2023/06/20 10:27:27;;;;;;;5.43;2.80;;;;;;;43.95;30.64;98372.19;5021567;28;20091;-72
2023/06/20 10:29:53;;;;;;;6.22;3.13;;;;;;;43.55;30.60;98389.25;5030656;28;20029;-72
2023/06/20 10:32:18;;;;;;;4.40;3.00;;;;;;;41.92;32.35;98394.16;5021732;28;20127;-71
2023/06/20 10:34:44;;;;;;;3.80;2.85;;;;;;;42.99;31.99;98369.06;5013384;28;20026;-71
2023/06/20 10:37:15;;;;;;;4.67;2.97;;;;;;;42.95;32.71;98373.22;5025974;28;20125;-71
2023/06/20 10:39:56;;;;;;;5.45;3.03;;;;;;;44.93;30.48;98370.84;5023111;28;20099;-71
2023/06/20 10:42:31;;;;;;;9.65;3.47;;;;;;;45.39;28.96;98374.56;5032303;28;20032;-71
2023/06/20 10:45:16;;;;;;;4.38;3.00;;;;;;;44.78;28.85;98376.91;5024872;28;20029;-71
2023/06/20 10:47:41;;;;;;;5.72;2.75;;;;;;;43.59;29.34;98374.94;5012889;28;20026;-71
2023/06/20 10:50:07;;;;;;;3.90;2.95;;;;;;;43.36;29.88;98369.25;5023610;28;20036;-71
2023/06/20 10:52:34;;;;;;;3.83;3.03;;;;;;;42.63;29.64;98371.66;5027546;28;20032;-72
2023/06/20 10:54:59;;;;;;;7.83;3.27;;;;;;;42.73;30.04;98373.53;5019859;28;20053;-72
2023/06/20 10:57:25;;;;;;;7.10;2.72;;;;;;;43.31;29.87;98365.69;5020458;28;20064;-71
2023/06/20 10:59:50;;;;;;;5.15;2.70;;;;;;;43.64;29.71;98351.66;5024096;28;20029;-72
2023/06/20 11:02:15;;;;;;;4.32;2.70;;;;;;;44.92;28.20;98344.34;5025247;28;20545;-71
2023/06/20 11:04:40;;;;;;;3.50;2.70;;;;;;;43.71;28.45;98345.81;5023392;28;20033;-72
2023/06/20 11:07:06;;;;;;;4.37;2.83;;;;;;;44.39;28.86;98355.81;5017756;28;20029;-72
2023/06/20 11:09:31;;;;;;;2.80;2.22;;;;;;;44.07;28.00;98356.50;5029979;28;20291;-71
2023/06/20 11:11:57;;;;;;;3.07;2.40;;;;;;;44.38;28.22;98347.66;5018127;28;20025;-72
2023/06/20 11:14:23;;;;;;;4.70;2.67;;;;;;;41.31;29.90;98354.19;5017664;28;20021;-72
2023/06/20 11:16:50;;;;;;;5.10;2.60;;;;;;;43.31;30.78;98357.16;5017422;28;20034;-72
2023/06/20 11:19:19;;;;;;;7.57;2.75;;;;;;;44.13;29.06;98349.03;5030371;28;20463;-72
2023/06/20 11:21:45;;;;;;;3.78;2.47;;;;;;;43.80;27.82;98352.97;5025439;28;20049;-71
2023/06/20 11:24:11;;;;;;;8.95;2.63;;;;;;;44.40;28.73;98345.19;5021570;28;20467;-72